Palm Beach, FL (33480)

6:30 PM EDT on August 29, 2014 (GMT -0400)
Palm Beach, FL | Change Station
CLOSE
Current Station
Personal Weather Station
Location: Palm Beach, FL
Elevation: 8 ft
Nearby Weather Stations

Elev 8 ft 26.71 °N, 80.04 °W | Updated 3 seconds ago

Mostly Cloudy
Mostly Cloudy
88.2 °F
Feels Like 102 °F
N
2.9
Wind Variable Wind from East
Gusts 6.0 mph

Today
High -- | Low -- °F
--% Chance of Precip.
Yesterday
High -- | Low -- °F
Precip. -- in
6:58 AM 7:43 PM
Waxing Crescent, 17% visible
Pressure 30.02 in
Visibility 10.0 miles
Clouds Few 2700 ft
Mostly Cloudy 25000 ft
Heat Index 102 °F
Dew Point 78 °F
Humidity 72%
Rainfall 0.00 in
Snow Depth Not available.
UV 1 out of 12
Pollen 4.70 out of 12
PM2.5 Good
Flu Activity Not available.
METAR KPBI 292153Z 11008KT 10SM FEW027 BKN250 31/24 A3002 RMK AO2 SLP164 T03110244

More Conditions Fewer Conditions

Pressure 30.02 in
Visibility 10.0 miles
Clouds Few 2700 ft
Mostly Cloudy 25000 ft
Heat Index 102 °F
Dew Point 78 °F
Humidity 72%
Rainfall 0.00 in
Snow Depth Not available.
UV 1 out of 12
Pollen 4.70 out of 12
PM2.5 Good
Flu Activity Not available.
METAR KPBI 292153Z 11008KT 10SM FEW027 BKN250 31/24 A3002 RMK AO2 SLP164 T03110244

More Conditions Fewer Conditions

10-Day Weather Forecast

Almanac

Astronomy

Aug. 29, 2014 Rise Set
Actual Time 6:58 AM EDT 7:43 PM EDT
Civil Twilight 6:34 AM EDT 8:06 PM EDT
Nautical Twilight 6:06 AM EDT 8:34 PM EDT
Astronomical Twilight 5:38 AM EDT 9:03 PM EDT
Moon 10:21 AM EDT 10:06 PM EDT
Length of Visible Light 13h 32m
Length of Day
12h 44m
Tomorrow will be 1m 29s shorter.
Waxing Crescent, 17% of the Moon is Illuminated
Today
Waxing Crescent
Sep 2
First Quarter
Sep 8
Full
Sep 15
Last Quarter
Sep 24
New

Today's Extremes

State Highs State Lows

Community

WunderPhotos

Upload Photos

1,748,363 photos uploaded!

Nearby

Air Quality

  Air Quality AQ Index Pollutant
Yesterday Good
OZONE
Current Good
PM2.5
Friday Good
OZONE
Friday Good
PM2.5
Saturday Moderate
PM2.5
Saturday Good
OZONE
Sunday Moderate
PM2.5
Sunday Good
OZONE
Monday Good
OZONE
Monday Good
PM2.5

Snow Depth

Station Depth Elevation
No new snow has been reported.

Earthquake Activity

City Distance Mag. Time & Date
No recent earthquake activity has been reported nearby.
Minimum magnitude displayed is 2.5.

Coastal Water Temperatures

Place Temperature
Lake Worth, FL 88.0 °F
Virginia Key, FL 87.1 °F

Nearby Weather Stations